Time;durP1;ratioP1;P1;durP2;ratioP2;P2;SDS_P1;SDS_P2;PMS_P1;PMS_P2;Temp;Humidity;BMP_temperature;BMP_pressure;BME280_temperature;BME280_humidity;BME280_pressure;Samples;Min_cycle;Max_cycle;Signal;HPM_P1;HPM_P2
2022/11/29 00:00:10;;;;;;;0.30;0.30;;;;;;;;;;5031317;28;20039;-61
2022/11/29 00:02:36;;;;;;;1.10;0.60;;;;;;;;;;5045024;28;20843;-64
2022/11/29 00:05:03;;;;;;;1.02;0.57;;;;;;;;;;5031779;28;20050;-63
2022/11/29 00:07:30;;;;;;;0.63;0.40;;;;;;;;;;5030506;28;20140;-62
2022/11/29 00:09:56;;;;;;;0.38;0.30;;;;;;;;;;5031648;28;20446;-65
2022/11/29 00:12:23;;;;;;;0.98;0.45;;;;;;;;;;5029356;28;20135;-61
2022/11/29 00:14:49;;;;;;;0.82;0.40;;;;;;;;;;5029168;28;20626;-63
2022/11/29 00:17:16;;;;;;;0.85;0.50;;;;;;;;;;5046842;28;20128;-63
2022/11/29 00:19:44;;;;;;;0.77;0.40;;;;;;;;;;5030750;28;20096;-62
2022/11/29 00:22:12;;;;;;;2.92;0.40;;;;;;;;;;5031031;28;20048;-62
2022/11/29 00:24:38;;;;;;;0.30;0.30;;;;;;;;;;5030122;28;20037;-63
2022/11/29 00:27:05;;;;;;;0.30;0.30;;;;;;;;;;5031434;28;20041;-62
2022/11/29 00:29:31;;;;;;;0.20;0.20;;;;;;;;;;5030561;28;20296;-63
2022/11/29 00:31:59;;;;;;;0.57;0.47;;;;;;;;;;5031299;28;20576;-63
2022/11/29 00:34:25;;;;;;;13.65;0.70;;;;;;;;;;5032114;28;20033;-62
2022/11/29 00:36:52;;;;;;;1.17;0.55;;;;;;;;;;5030138;28;20061;-59
2022/11/29 00:39:18;;;;;;;0.70;0.30;;;;;;;;;;5030917;28;20045;-66
2022/11/29 00:41:45;;;;;;;0.43;0.30;;;;;;;;;;5031298;28;20401;-60
2022/11/29 00:44:12;;;;;;;1.27;0.60;;;;;;;;;;5029977;28;20035;-62
2022/11/29 00:46:38;;;;;;;0.20;0.20;;;;;;;;;;5047245;28;20064;-61
2022/11/29 00:49:05;;;;;;;1.77;0.50;;;;;;;;;;5031024;28;20033;-61
2022/11/29 00:51:32;;;;;;;2.05;0.95;;;;;;;;;;5028275;28;20048;-65
2022/11/29 00:53:59;;;;;;;1.10;0.40;;;;;;;;;;5045293;28;20055;-62
2022/11/29 00:56:25;;;;;;;1.10;0.50;;;;;;;;;;5037346;28;20037;-62
2022/11/29 00:58:52;;;;;;;0.93;0.40;;;;;;;;;;5029692;28;20599;-61
2022/11/29 01:01:19;;;;;;;1.52;0.60;;;;;;;;;;5024687;28;20337;-68
2022/11/29 01:03:45;;;;;;;0.70;0.40;;;;;;;;;;5029540;28;20036;-64
2022/11/29 01:06:13;;;;;;;1.23;0.40;;;;;;;;;;5028765;28;20049;-61
2022/11/29 01:08:40;;;;;;;0.47;0.30;;;;;;;;;;5030653;28;20041;-65
2022/11/29 01:11:10;;;;;;;0.98;0.40;;;;;;;;;;5029671;28;20040;-62
2022/11/29 01:13:37;;;;;;;1.17;0.75;;;;;;;;;;5045149;28;20876;-61
2022/11/29 01:16:04;;;;;;;1.10;0.38;;;;;;;;;;5045804;28;20592;-61
2022/11/29 01:18:31;;;;;;;0.52;0.30;;;;;;;;;;5042860;28;20456;-63
2022/11/29 01:20:59;;;;;;;0.68;0.30;;;;;;;;;;5027009;28;20762;-61
2022/11/29 01:23:26;;;;;;;1.08;0.43;;;;;;;;;;5029662;28;20043;-62
2022/11/29 01:26:03;;;;;;;0.52;0.30;;;;;;;;;;5028005;28;20532;-61
2022/11/29 01:28:30;;;;;;;0.47;0.30;;;;;;;;;;5028352;28;20599;-63
2022/11/29 01:30:57;;;;;;;0.95;0.40;;;;;;;;;;5042954;28;20942;-60
2022/11/29 01:33:23;;;;;;;0.20;0.20;;;;;;;;;;5029635;28;20294;-61
2022/11/29 01:35:51;;;;;;;1.40;0.50;;;;;;;;;;5029678;28;20111;-60
2022/11/29 01:38:18;;;;;;;0.75;0.30;;;;;;;;;;5028580;28;20080;-62
2022/11/29 01:40:55;;;;;;;0.70;0.30;;;;;;;;;;5007792;28;20049;-62
2022/11/29 01:43:22;;;;;;;1.63;0.57;;;;;;;;;;5008294;28;20379;-61
2022/11/29 01:45:49;;;;;;;0.68;0.35;;;;;;;;;;5008765;28;20048;-62
2022/11/29 01:48:17;;;;;;;0.93;0.40;;;;;;;;;;5010038;28;20033;-61
2022/11/29 01:50:43;;;;;;;0.75;0.43;;;;;;;;;;5010038;28;20033;-61
2022/11/29 01:53:12;;;;;;;1.45;0.52;;;;;;;;;;5009050;28;20053;-61
2022/11/29 01:55:39;;;;;;;0.55;0.40;;;;;;;;;;5008451;28;20508;-63
2022/11/29 01:58:07;;;;;;;1.52;0.55;;;;;;;;;;5010899;28;20049;-63
2022/11/29 02:00:33;;;;;;;0.95;0.30;;;;;;;;;;5008689;28;20056;-62
2022/11/29 02:03:13;;;;;;;2.20;0.45;;;;;;;;;;5009149;28;20061;-61
2022/11/29 02:05:45;;;;;;;0.98;0.40;;;;;;;;;;5009575;28;20053;-60
2022/11/29 02:08:13;;;;;;;1.48;0.63;;;;;;;;;;5008737;28;20056;-60
2022/11/29 02:10:44;;;;;;;0.88;0.50;;;;;;;;;;5009025;28;20967;-59
2022/11/29 02:13:23;;;;;;;1.27;0.60;;;;;;;;;;5013160;28;20126;-63
2022/11/29 02:15:52;;;;;;;1.17;0.47;;;;;;;;;;5013725;28;20049;-61
2022/11/29 02:18:48;;;;;;;0.45;0.30;;;;;;;;;;5013234;28;20505;-62
2022/11/29 02:21:42;;;;;;;0.63;0.30;;;;;;;;;;5002631;28;20226;-64
2022/11/29 02:24:27;;;;;;;0.75;0.50;;;;;;;;;;5032259;28;20357;-63
2022/11/29 02:27:12;;;;;;;0.98;0.47;;;;;;;;;;5011667;28;20499;-62
2022/11/29 02:29:57;;;;;;;0.98;0.52;;;;;;;;;;5012421;28;20175;-62
2022/11/29 02:32:42;;;;;;;0.68;0.30;;;;;;;;;;5012298;28;20056;-62
2022/11/29 02:35:12;;;;;;;1.98;0.63;;;;;;;;;;5012439;28;20058;-63
2022/11/29 02:37:41;;;;;;;0.93;0.43;;;;;;;;;;5012456;28;20789;-61
2022/11/29 02:40:14;;;;;;;1.05;0.73;;;;;;;;;;5012435;28;20049;-61
2022/11/29 02:42:58;;;;;;;1.77;0.90;;;;;;;;;;5011044;28;20128;-62
2022/11/29 02:45:38;;;;;;;1.73;0.77;;;;;;;;;;5011669;28;20489;-61
2022/11/29 02:48:04;;;;;;;0.20;0.20;;;;;;;;;;5011936;28;20060;-61
2022/11/29 02:50:50;;;;;;;2.25;0.68;;;;;;;;;;5010291;28;20037;-60
2022/11/29 02:53:27;;;;;;;2.17;0.73;;;;;;;;;;5010565;28;20056;-61
2022/11/29 02:56:12;;;;;;;0.90;0.40;;;;;;;;;;5009148;28;20045;-61
2022/11/29 02:58:45;;;;;;;1.65;0.55;;;;;;;;;;5011438;28;20060;-61
2022/11/29 03:01:15;;;;;;;2.08;1.27;;;;;;;;;;5011197;28;20033;-63
2022/11/29 03:03:50;;;;;;;1.85;0.70;;;;;;;;;;5010250;28;20095;-59
2022/11/29 03:06:37;;;;;;;3.55;0.75;;;;;;;;;;5011921;28;20069;-61
2022/11/29 03:09:16;;;;;;;2.17;0.80;;;;;;;;;;5022644;28;20071;-62
2022/11/29 03:11:48;;;;;;;1.67;0.63;;;;;;;;;;5031542;28;20500;-61
2022/11/29 03:14:28;;;;;;;3.10;0.85;;;;;;;;;;5030951;28;20042;-59
2022/11/29 03:17:13;;;;;;;3.50;0.55;;;;;;;;;;5006420;28;20100;-61
2022/11/29 03:19:42;;;;;;;2.17;0.68;;;;;;;;;;5012268;28;20041;-62
2022/11/29 03:22:28;;;;;;;2.30;0.82;;;;;;;;;;5008327;28;20052;-62
2022/11/29 03:24:56;;;;;;;0.77;0.47;;;;;;;;;;5009902;28;20061;-60
2022/11/29 03:27:36;;;;;;;2.08;0.77;;;;;;;;;;5010533;28;20115;-60
2022/11/29 03:30:05;;;;;;;3.08;0.90;;;;;;;;;;5012012;28;20124;-59
2022/11/29 03:32:42;;;;;;;1.27;0.60;;;;;;;;;;5008767;28;20057;-61
2022/11/29 03:35:30;;;;;;;1.13;0.50;;;;;;;;;;5010151;28;20048;-61
2022/11/29 03:38:06;;;;;;;1.83;0.70;;;;;;;;;;5017727;28;20587;-59
2022/11/29 03:40:43;;;;;;;1.48;0.70;;;;;;;;;;5025450;28;20076;-62
2022/11/29 03:43:12;;;;;;;1.27;0.73;;;;;;;;;;5011229;28;20085;-58
2022/11/29 03:45:44;;;;;;;3.17;1.05;;;;;;;;;;5025661;28;20676;-61
2022/11/29 03:48:29;;;;;;;2.97;1.33;;;;;;;;;;5009090;28;20041;-60
2022/11/29 03:51:05;;;;;;;2.22;1.02;;;;;;;;;;5007781;28;20046;-62
2022/11/29 03:53:54;;;;;;;2.85;1.02;;;;;;;;;;5009834;28;20577;-60
2022/11/29 03:56:40;;;;;;;5.53;1.27;;;;;;;;;;5009977;28;20041;-62
2022/11/29 03:59:10;;;;;;;1.08;0.50;;;;;;;;;;5012108;28;20041;-62
2022/11/29 04:01:46;;;;;;;6.97;1.85;;;;;;;;;;5008897;28;20065;-62
2022/11/29 04:04:31;;;;;;;0.93;0.63;;;;;;;;;;5009870;28;20048;-61
2022/11/29 04:07:01;;;;;;;2.20;0.77;;;;;;;;;;5008360;28;20549;-63
2022/11/29 04:09:27;;;;;;;3.40;1.30;;;;;;;;;;5009586;28;20588;-63
2022/11/29 04:12:00;;;;;;;2.65;0.93;;;;;;;;;;5011034;28;20692;-62
2022/11/29 04:14:45;;;;;;;2.22;0.98;;;;;;;;;;5008462;28;20056;-62
2022/11/29 04:17:37;;;;;;;1.05;0.50;;;;;;;;;;5011385;28;20034;-59
2022/11/29 04:20:24;;;;;;;1.48;0.50;;;;;;;;;;5007790;28;20049;-63
2022/11/29 04:23:03;;;;;;;3.20;1.25;;;;;;;;;;5001750;28;20190;-61
2022/11/29 04:25:48;;;;;;;1.35;0.63;;;;;;;;;;5000198;28;20422;-60
2022/11/29 04:28:33;;;;;;;2.25;0.73;;;;;;;;;;5000209;28;20042;-63
2022/11/29 04:31:04;;;;;;;1.35;0.40;;;;;;;;;;5008148;28;20072;-61
2022/11/29 04:33:43;;;;;;;1.70;0.63;;;;;;;;;;5017528;28;20107;-61
2022/11/29 04:36:13;;;;;;;3.42;0.73;;;;;;;;;;5028639;28;20033;-62
2022/11/29 04:38:56;;;;;;;2.28;0.90;;;;;;;;;;5043837;28;20044;-63
2022/11/29 04:41:29;;;;;;;2.50;1.08;;;;;;;;;;5029093;28;20041;-63
2022/11/29 04:43:58;;;;;;;1.40;0.60;;;;;;;;;;5029060;28;20045;-62
2022/11/29 04:46:43;;;;;;;2.25;1.02;;;;;;;;;;5029997;28;20037;-65
2022/11/29 04:49:28;;;;;;;3.05;0.90;;;;;;;;;;5029236;28;20036;-61
2022/11/29 04:52:13;;;;;;;2.22;0.95;;;;;;;;;;5035001;28;20045;-60
2022/11/29 04:54:49;;;;;;;1.70;0.57;;;;;;;;;;5028664;28;20060;-60
2022/11/29 04:57:15;;;;;;;0.80;0.50;;;;;;;;;;5029768;28;20094;-61
2022/11/29 04:59:45;;;;;;;1.05;0.65;;;;;;;;;;5042859;28;20175;-63
2022/11/29 05:02:20;;;;;;;1.73;0.70;;;;;;;;;;5029964;28;20526;-63
2022/11/29 05:05:04;;;;;;;1.65;0.50;;;;;;;;;;5020023;28;20107;-61
2022/11/29 05:07:33;;;;;;;15.40;1.40;;;;;;;;;;5036708;28;20053;-61
2022/11/29 05:10:23;;;;;;;1.42;0.60;;;;;;;;;;5028001;28;20409;-60
2022/11/29 05:13:03;;;;;;;2.60;0.98;;;;;;;;;;5018858;28;20049;-62
2022/11/29 05:15:35;;;;;;;3.80;0.93;;;;;;;;;;5027824;28;20529;-61
2022/11/29 05:18:11;;;;;;;0.97;0.50;;;;;;;;;;5030477;28;20083;-60
2022/11/29 05:20:52;;;;;;;2.33;1.00;;;;;;;;;;5027705;28;20047;-60
2022/11/29 05:23:37;;;;;;;3.75;1.20;;;;;;;;;;5028867;28;20184;-61
2022/11/29 05:26:31;;;;;;;1.88;0.73;;;;;;;;;;5028714;28;21356;-59
2022/11/29 05:29:26;;;;;;;2.20;1.00;;;;;;;;;;5026301;28;20517;-62
2022/11/29 05:32:11;;;;;;;2.75;0.90;;;;;;;;;;5015862;28;20096;-62
2022/11/29 05:34:41;;;;;;;4.40;1.08;;;;;;;;;;5029165;28;20056;-63
2022/11/29 05:37:23;;;;;;;1.02;0.68;;;;;;;;;;5029826;28;20088;-62
2022/11/29 05:39:55;;;;;;;1.13;0.55;;;;;;;;;;5009795;28;20195;-60
2022/11/29 05:42:32;;;;;;;0.73;0.43;;;;;;;;;;5007758;28;20041;-60
2022/11/29 05:45:14;;;;;;;0.38;0.30;;;;;;;;;;5007603;28;20128;-60
2022/11/29 05:47:54;;;;;;;1.70;0.60;;;;;;;;;;5009559;28;20033;-62
2022/11/29 05:50:26;;;;;;;1.65;0.63;;;;;;;;;;5009416;28;20048;-61
2022/11/29 05:52:59;;;;;;;2.95;0.93;;;;;;;;;;5009523;28;20045;-62
2022/11/29 05:55:34;;;;;;;2.50;0.63;;;;;;;;;;5008689;28;20038;-62
2022/11/29 05:58:12;;;;;;;1.65;0.70;;;;;;;;;;5010143;28;20061;-61
2022/11/29 06:00:47;;;;;;;1.35;0.52;;;;;;;;;;5022748;28;20067;-62
2022/11/29 06:03:32;;;;;;;0.95;0.57;;;;;;;;;;5010694;28;20041;-61
2022/11/29 06:06:02;;;;;;;2.80;1.10;;;;;;;;;;5008978;28;20080;-60
2022/11/29 06:08:35;;;;;;;1.10;0.50;;;;;;;;;;5010998;28;20062;-60
2022/11/29 06:11:37;;;;;;;3.20;0.95;;;;;;;;;;5012452;28;20041;-60
2022/11/29 06:14:05;;;;;;;0.85;0.50;;;;;;;;;;4956812;28;20497;-62
2022/11/29 06:16:38;;;;;;;2.13;1.10;;;;;;;;;;5002042;28;20038;-58
2022/11/29 06:19:04;;;;;;;;;;;;;;;;;;5010323;28;20137;-57
2022/11/29 06:21:46;;;;;;;2.10;0.98;;;;;;;;;;5006032;28;19959;-59
2022/11/29 06:24:23;;;;;;;3.65;1.10;;;;;;;;;;5015248;28;20060;-60
2022/11/29 06:27:16;;;;;;;1.58;0.75;;;;;;;;;;5012179;28;20068;-62
2022/11/29 06:29:48;;;;;;;0.40;0.30;;;;;;;;;;5020724;28;20052;-58
2022/11/29 06:32:33;;;;;;;4.53;0.93;;;;;;;;;;5025774;28;20041;-60
2022/11/29 06:35:12;;;;;;;2.10;1.00;;;;;;;;;;5041978;28;20505;-60
2022/11/29 06:37:40;;;;;;;0.98;0.57;;;;;;;;;;5029572;28;20043;-60
2022/11/29 06:40:11;;;;;;;1.10;0.70;;;;;;;;;;5030297;28;20126;-58
2022/11/29 06:42:38;;;;;;;2.95;1.00;;;;;;;;;;5029409;28;22873;-59
2022/11/29 06:45:05;;;;;;;1.08;0.50;;;;;;;;;;5013503;28;20125;-61
2022/11/29 06:47:35;;;;;;;2.08;0.88;;;;;;;;;;5011585;28;20092;-61
2022/11/29 06:50:17;;;;;;;4.55;1.40;;;;;;;;;;5008700;28;20037;-61
2022/11/29 06:52:53;;;;;;;3.20;0.85;;;;;;;;;;5023081;28;20048;-62
2022/11/29 06:55:20;;;;;;;1.55;0.70;;;;;;;;;;5022030;28;20445;-64
2022/11/29 06:58:03;;;;;;;1.23;0.60;;;;;;;;;;5007559;28;20041;-61
2022/11/29 07:00:39;;;;;;;0.77;0.47;;;;;;;;;;5011492;28;20103;-62
2022/11/29 07:03:10;;;;;;;5.38;0.88;;;;;;;;;;5025868;28;20099;-60
2022/11/29 07:05:37;;;;;;;2.40;1.00;;;;;;;;;;5012263;28;20048;-59
2022/11/29 07:08:14;;;;;;;1.75;0.77;;;;;;;;;;5012666;28;21262;-60
2022/11/29 07:10:42;;;;;;;2.45;0.95;;;;;;;;;;5010186;28;20045;-62
2022/11/29 07:13:11;;;;;;;0.88;0.63;;;;;;;;;;5011746;28;20065;-60
2022/11/29 07:15:38;;;;;;;4.82;1.30;;;;;;;;;;5011001;28;20041;-60
2022/11/29 07:18:24;;;;;;;3.72;1.20;;;;;;;;;;5011037;28;20037;-61
2022/11/29 07:21:03;;;;;;;2.00;0.75;;;;;;;;;;5010705;28;20056;-59
2022/11/29 07:23:42;;;;;;;2.03;0.98;;;;;;;;;;5011343;28;20077;-59
2022/11/29 07:26:08;;;;;;;1.65;0.80;;;;;;;;;;5016780;28;20140;-58
2022/11/29 07:28:35;;;;;;;0.55;0.30;;;;;;;;;;5010786;28;20514;-56
2022/11/29 07:31:16;;;;;;;2.67;1.35;;;;;;;;;;5011577;28;21623;-57
2022/11/29 07:33:55;;;;;;;6.22;1.20;;;;;;;;;;5011874;28;20064;-58
2022/11/29 07:36:30;;;;;;;0.55;0.38;;;;;;;;;;5009200;28;20150;-61
2022/11/29 07:39:35;;;;;;;2.97;0.98;;;;;;;;;;5024651;28;20053;-59
2022/11/29 07:42:20;;;;;;;3.25;1.10;;;;;;;;;;4973048;28;21514;-58
2022/11/29 07:44:49;;;;;;;7.85;0.98;;;;;;;;;;4973218;28;20635;-63
2022/11/29 07:47:16;;;;;;;3.95;0.98;;;;;;;;;;4997113;28;20554;-62
2022/11/29 07:49:43;;;;;;;2.28;1.00;;;;;;;;;;5010687;28;20115;-59
2022/11/29 07:52:14;;;;;;;1.80;0.85;;;;;;;;;;5025199;28;20048;-61
2022/11/29 07:54:41;;;;;;;3.45;1.10;;;;;;;;;;5010221;28;20056;-61
2022/11/29 07:57:07;;;;;;;2.08;0.75;;;;;;;;;;5012695;28;20046;-59
2022/11/29 07:59:34;;;;;;;3.28;1.10;;;;;;;;;;5016180;28;20030;-60
2022/11/29 08:02:01;;;;;;;1.48;0.80;;;;;;;;;;5010010;28;20116;-61
2022/11/29 08:04:28;;;;;;;2.45;1.00;;;;;;;;;;5010402;28;20049;-60
2022/11/29 08:06:57;;;;;;;2.60;0.80;;;;;;;;;;5009875;28;20497;-60
2022/11/29 08:09:24;;;;;;;6.30;1.23;;;;;;;;;;5003486;28;20184;-61
2022/11/29 08:11:51;;;;;;;2.35;0.75;;;;;;;;;;5017791;28;20366;-61
2022/11/29 08:14:18;;;;;;;2.20;0.88;;;;;;;;;;5009288;28;20041;-67
2022/11/29 08:16:44;;;;;;;1.08;0.50;;;;;;;;;;5010656;28;20073;-61
2022/11/29 08:19:11;;;;;;;1.58;0.65;;;;;;;;;;5011735;28;20510;-60
2022/11/29 08:21:37;;;;;;;4.38;1.00;;;;;;;;;;5008067;28;20130;-62
2022/11/29 08:24:04;;;;;;;1.50;0.68;;;;;;;;;;5009684;28;20041;-59
2022/11/29 08:26:30;;;;;;;1.08;0.47;;;;;;;;;;5010207;28;20451;-62
2022/11/29 08:28:57;;;;;;;0.50;0.50;;;;;;;;;;5025283;28;20042;-62
2022/11/29 08:31:24;;;;;;;7.78;0.90;;;;;;;;;;5009182;28;20037;-61
2022/11/29 08:33:50;;;;;;;0.55;0.40;;;;;;;;;;5018157;28;20505;-61
2022/11/29 08:36:18;;;;;;;1.30;0.50;;;;;;;;;;5010822;28;20172;-58
2022/11/29 08:38:45;;;;;;;3.55;0.95;;;;;;;;;;5010114;28;20041;-61
2022/11/29 08:41:13;;;;;;;0.98;0.40;;;;;;;;;;5010077;28;20109;-60
2022/11/29 08:43:40;;;;;;;3.15;0.90;;;;;;;;;;5010226;28;20052;-64
2022/11/29 08:46:07;;;;;;;1.02;0.55;;;;;;;;;;5025070;28;20037;-61
2022/11/29 08:48:35;;;;;;;3.83;0.90;;;;;;;;;;5009100;28;20507;-64
2022/11/29 08:51:03;;;;;;;1.20;0.55;;;;;;;;;;5010042;28;20045;-61
2022/11/29 08:53:42;;;;;;;1.35;0.57;;;;;;;;;;5010518;28;20077;-61
2022/11/29 08:56:09;;;;;;;2.92;1.05;;;;;;;;;;5009606;28;20659;-61
2022/11/29 08:58:36;;;;;;;0.38;0.30;;;;;;;;;;5008142;28;20751;-62
2022/11/29 09:01:03;;;;;;;0.65;0.52;;;;;;;;;;5023588;28;20534;-61
2022/11/29 09:06:17;;;;;;;0.95;0.60;;;;;;;;;;5010663;28;20513;-61
2022/11/29 09:08:44;;;;;;;0.73;0.40;;;;;;;;;;5010639;28;20041;-61
2022/11/29 09:11:14;;;;;;;2.40;1.08;;;;;;;;;;5010019;28;20482;-59
2022/11/29 09:13:45;;;;;;;2.20;0.75;;;;;;;;;;5016821;28;20499;-59
2022/11/29 09:16:13;;;;;;;1.90;0.88;;;;;;;;;;5010675;28;20046;-60
2022/11/29 09:18:40;;;;;;;1.63;0.77;;;;;;;;;;5024055;28;20240;-60
2022/11/29 09:21:11;;;;;;;2.15;0.90;;;;;;;;;;5008245;28;20084;-60
2022/11/29 09:23:39;;;;;;;0.57;0.40;;;;;;;;;;5024161;28;20040;-61
2022/11/29 09:26:06;;;;;;;0.28;0.28;;;;;;;;;;5010418;28;20042;-62
2022/11/29 09:28:33;;;;;;;4.28;0.95;;;;;;;;;;5008613;28;20038;-61
2022/11/29 09:31:04;;;;;;;1.75;0.70;;;;;;;;;;5008949;28;20168;-59
2022/11/29 09:33:31;;;;;;;2.00;0.77;;;;;;;;;;5009671;28;20160;-62
2022/11/29 09:35:58;;;;;;;1.02;0.50;;;;;;;;;;5008014;28;20153;-60
2022/11/29 09:38:25;;;;;;;1.85;0.93;;;;;;;;;;5009281;28;20041;-61
2022/11/29 09:40:53;;;;;;;0.35;0.20;;;;;;;;;;5007388;28;20391;-63
2022/11/29 09:43:29;;;;;;;1.77;1.27;;;;;;;;;;5008874;28;20045;-60
2022/11/29 09:46:01;;;;;;;4.05;1.15;;;;;;;;;;5007900;28;20185;-60
2022/11/29 09:48:31;;;;;;;1.85;0.80;;;;;;;;;;5009236;28;20049;-60
2022/11/29 09:51:05;;;;;;;0.88;0.40;;;;;;;;;;5008643;28;20052;-62
2022/11/29 09:53:32;;;;;;;1.48;0.68;;;;;;;;;;5008964;28;20414;-59
2022/11/29 09:56:10;;;;;;;1.45;0.55;;;;;;;;;;5010260;28;20082;-62
2022/11/29 09:59:04;;;;;;;0.35;0.35;;;;;;;;;;5022936;28;20446;-60
2022/11/29 10:01:30;;;;;;;;;;;;;;;;;;5008860;28;20513;-62
2022/11/29 10:04:01;;;;;;;2.00;0.75;;;;;;;;;;5008583;28;20202;-60
2022/11/29 10:06:33;;;;;;;1.88;0.70;;;;;;;;;;5007705;28;20097;-60
2022/11/29 10:08:59;;;;;;;0.50;0.30;;;;;;;;;;5009178;28;20291;-62
2022/11/29 10:11:35;;;;;;;2.22;0.80;;;;;;;;;;5007843;28;20045;-59
2022/11/29 10:14:08;;;;;;;2.22;0.95;;;;;;;;;;5008377;28;20049;-65
2022/11/29 10:16:52;;;;;;;2.38;0.80;;;;;;;;;;5022986;28;20031;-63
2022/11/29 10:19:25;;;;;;;1.67;0.50;;;;;;;;;;5009495;28;20175;-61
2022/11/29 10:22:00;;;;;;;0.80;0.38;;;;;;;;;;5008956;28;20033;-60
2022/11/29 10:24:28;;;;;;;1.55;0.57;;;;;;;;;;5009319;28;20042;-59
2022/11/29 10:26:55;;;;;;;0.73;0.40;;;;;;;;;;5009894;28;20099;-59
2022/11/29 10:29:22;;;;;;;1.10;0.40;;;;;;;;;;5006650;28;20044;-62
2022/11/29 10:31:48;;;;;;;0.73;0.43;;;;;;;;;;5010687;28;20383;-61
2022/11/29 10:34:16;;;;;;;0.43;0.40;;;;;;;;;;5012569;28;20065;-61
2022/11/29 10:36:45;;;;;;;1.17;0.50;;;;;;;;;;5019210;28;21202;-58
2022/11/29 10:39:20;;;;;;;1.17;0.80;;;;;;;;;;5020672;28;20482;-61
2022/11/29 10:41:51;;;;;;;1.15;0.52;;;;;;;;;;5027828;28;20588;-60
2022/11/29 10:44:19;;;;;;;0.90;0.52;;;;;;;;;;5010656;28;20187;-62
2022/11/29 10:46:45;;;;;;;1.70;0.73;;;;;;;;;;5011350;28;20406;-60
2022/11/29 10:49:15;;;;;;;0.70;0.45;;;;;;;;;;5011629;28;20045;-60
2022/11/29 10:51:41;;;;;;;0.25;0.25;;;;;;;;;;5010336;28;20104;-58
2022/11/29 10:54:17;;;;;;;0.30;0.30;;;;;;;;;;5018434;28;20143;-58
2022/11/29 10:56:44;;;;;;;1.00;0.50;;;;;;;;;;5012284;28;20042;-60
2022/11/29 10:59:19;;;;;;;0.15;0.15;;;;;;;;;;5020896;28;20046;-60
2022/11/29 11:01:46;;;;;;;0.30;0.30;;;;;;;;;;5011809;28;20041;-60
2022/11/29 11:04:26;;;;;;;0.98;0.68;;;;;;;;;;5014340;28;20044;-60
2022/11/29 11:06:56;;;;;;;0.52;0.38;;;;;;;;;;5011443;28;20495;-61
2022/11/29 11:09:33;;;;;;;1.70;0.90;;;;;;;;;;5009955;28;20045;-62
2022/11/29 11:12:14;;;;;;;0.50;0.30;;;;;;;;;;5013122;28;20045;-60
2022/11/29 11:14:41;;;;;;;1.40;0.50;;;;;;;;;;5012414;28;20444;-58
2022/11/29 11:17:14;;;;;;;0.30;0.30;;;;;;;;;;5013072;28;20037;-61
2022/11/29 11:19:41;;;;;;;0.22;0.22;;;;;;;;;;5011871;28;20503;-58
2022/11/29 11:22:19;;;;;;;0.57;0.47;;;;;;;;;;5011969;28;20117;-59
2022/11/29 11:24:46;;;;;;;1.17;0.70;;;;;;;;;;5011418;28;20056;-59
2022/11/29 11:27:12;;;;;;;0.20;0.20;;;;;;;;;;5012455;28;20048;-62
2022/11/29 11:29:40;;;;;;;0.40;0.40;;;;;;;;;;5010922;28;20447;-60
2022/11/29 11:32:17;;;;;;;0.20;0.20;;;;;;;;;;5012043;28;20045;-60
2022/11/29 11:34:51;;;;;;;0.30;0.30;;;;;;;;;;5010953;28;20049;-60
2022/11/29 11:37:20;;;;;;;0.38;0.30;;;;;;;;;;5026220;28;20128;-66
2022/11/29 11:39:48;;;;;;;0.60;0.38;;;;;;;;;;5012263;28;20589;-62
2022/11/29 11:42:39;;;;;;;0.30;0.30;;;;;;;;;;5014387;28;20120;-63
2022/11/29 11:45:05;;;;;;;0.40;0.40;;;;;;;;;;5009313;28;20608;-61
2022/11/29 11:47:34;;;;;;;0.50;0.50;;;;;;;;;;5012283;28;20052;-61
2022/11/29 11:50:03;;;;;;;0.38;0.38;;;;;;;;;;5010432;28;20052;-58
2022/11/29 11:52:33;;;;;;;0.20;0.20;;;;;;;;;;5011534;28;20120;-59
2022/11/29 11:55:01;;;;;;;1.00;0.70;;;;;;;;;;5012231;28;20160;-59
2022/11/29 11:57:28;;;;;;;0.20;0.20;;;;;;;;;;5012126;28;20042;-58
2022/11/29 11:59:55;;;;;;;0.20;0.20;;;;;;;;;;5010770;28;20111;-60
2022/11/29 12:02:27;;;;;;;0.20;0.20;;;;;;;;;;5018501;28;20038;-62
2022/11/29 12:05:04;;;;;;;0.22;0.22;;;;;;;;;;5013646;28;20041;-62
2022/11/29 12:07:35;;;;;;;0.20;0.20;;;;;;;;;;5011306;28;20485;-59
2022/11/29 12:10:06;;;;;;;0.30;0.30;;;;;;;;;;5010849;28;20033;-61
2022/11/29 12:12:36;;;;;;;0.22;0.22;;;;;;;;;;5009646;28;20040;-62
2022/11/29 12:15:02;;;;;;;0.22;0.20;;;;;;;;;;5010032;28;20060;-61
2022/11/29 12:17:41;;;;;;;3.08;0.90;;;;;;;;;;5025284;28;20052;-60
2022/11/29 12:20:27;;;;;;;0.20;0.20;;;;;;;;;;5009971;28;20041;-59
2022/11/29 12:22:53;;;;;;;0.38;0.38;;;;;;;;;;5009757;28;20034;-59
2022/11/29 12:25:29;;;;;;;0.20;0.20;;;;;;;;;;5009764;28;20071;-61
2022/11/29 12:27:56;;;;;;;0.20;0.20;;;;;;;;;;5008876;28;20069;-64
2022/11/29 12:30:23;;;;;;;0.20;0.20;;;;;;;;;;5010645;28;20103;-62
2022/11/29 12:33:22;;;;;;;0.30;0.30;;;;;;;;;;5016707;28;20176;-62
2022/11/29 12:36:21;;;;;;;0.20;0.20;;;;;;;;;;5007685;28;20050;-60
2022/11/29 12:39:00;;;;;;;0.20;0.20;;;;;;;;;;4976265;28;20516;-62
2022/11/29 12:41:27;;;;;;;0.38;0.22;;;;;;;;;;5007901;28;20605;-61
2022/11/29 12:44:02;;;;;;;0.20;0.20;;;;;;;;;;5017043;28;20063;-62
2022/11/29 12:46:49;;;;;;;0.20;0.20;;;;;;;;;;5046783;28;20156;-59
2022/11/29 12:49:21;;;;;;;0.20;0.20;;;;;;;;;;5045535;28;20441;-62
2022/11/29 12:51:50;;;;;;;0.20;0.20;;;;;;;;;;5045329;28;20040;-60
2022/11/29 12:54:32;;;;;;;0.20;0.20;;;;;;;;;;5047151;28;21395;-62
2022/11/29 12:57:04;;;;;;;1.90;0.85;;;;;;;;;;5047224;28;20036;-60
2022/11/29 12:59:54;;;;;;;0.20;0.20;;;;;;;;;;5044432;28;20652;-59
2022/11/29 13:02:34;;;;;;;1.00;0.50;;;;;;;;;;5045223;28;20044;-57
2022/11/29 13:05:03;;;;;;;0.35;0.35;;;;;;;;;;5030222;28;20037;-58
2022/11/29 13:07:48;;;;;;;3.42;0.50;;;;;;;;;;5030484;28;20040;-60
2022/11/29 13:10:23;;;;;;;0.40;0.40;;;;;;;;;;5045899;28;21463;-64
2022/11/29 13:12:59;;;;;;;0.20;0.20;;;;;;;;;;5044888;28;20186;-56
2022/11/29 13:15:35;;;;;;;0.52;0.50;;;;;;;;;;5044015;28;20044;-60
2022/11/29 13:18:12;;;;;;;0.40;0.40;;;;;;;;;;5025644;28;20071;-60
2022/11/29 13:20:45;;;;;;;0.35;0.35;;;;;;;;;;5008658;28;20044;-63
2022/11/29 13:23:19;;;;;;;0.57;0.45;;;;;;;;;;5024402;28;20405;-63
2022/11/29 13:25:50;;;;;;;0.30;0.22;;;;;;;;;;5011421;28;20053;-63
2022/11/29 13:28:30;;;;;;;0.55;0.40;;;;;;;;;;5024964;28;20473;-58
2022/11/29 13:31:00;;;;;;;0.25;0.25;;;;;;;;;;5008755;28;20509;-64
2022/11/29 13:33:53;;;;;;;0.25;0.25;;;;;;;;;;5026772;28;20056;-62
2022/11/29 13:36:22;;;;;;;0.22;0.20;;;;;;;;;;5006791;28;20042;-65
2022/11/29 13:38:48;;;;;;;1.23;0.60;;;;;;;;;;5015650;28;20044;-64
2022/11/29 13:41:18;;;;;;;2.45;0.80;;;;;;;;;;5013033;28;20033;-60
2022/11/29 13:43:48;;;;;;;1.10;0.30;;;;;;;;;;5008445;28;20038;-61
2022/11/29 13:46:35;;;;;;;0.28;0.28;;;;;;;;;;5011225;28;20065;-61
2022/11/29 13:49:02;;;;;;;0.63;0.63;;;;;;;;;;5010517;28;20112;-60
2022/11/29 13:51:29;;;;;;;0.25;0.25;;;;;;;;;;5010132;28;20781;-62
2022/11/29 13:53:56;;;;;;;0.20;0.20;;;;;;;;;;5024300;28;20063;-61
2022/11/29 13:56:28;;;;;;;0.40;0.40;;;;;;;;;;5013760;28;20124;-60
2022/11/29 13:58:57;;;;;;;0.38;0.38;;;;;;;;;;5013100;28;20070;-62
2022/11/29 14:01:25;;;;;;;2.20;0.50;;;;;;;;;;5013617;28;20113;-60
2022/11/29 14:04:03;;;;;;;0.20;0.20;;;;;;;;;;5014355;28;20040;-61
2022/11/29 14:06:36;;;;;;;0.90;0.50;;;;;;;;;;5028481;28;20037;-60
2022/11/29 14:09:02;;;;;;;;;;;;;;;;;;5016429;28;20053;-59
2022/11/29 14:11:55;;;;;;;0.20;0.20;;;;;;;;;;5013343;28;19917;-60
2022/11/29 14:14:37;;;;;;;1.40;0.75;;;;;;;;;;5000793;28;20049;-59
2022/11/29 14:17:05;;;;;;;2.55;2.00;;;;;;;;;;5017355;28;20133;-59
2022/11/29 14:19:31;;;;;;;0.20;0.20;;;;;;;;;;5012648;28;20120;-59
2022/11/29 14:22:01;;;;;;;0.20;0.20;;;;;;;;;;5015946;28;20106;-61
2022/11/29 14:24:59;;;;;;;0.75;0.50;;;;;;;;;;5023153;28;20068;-60
2022/11/29 14:27:25;;;;;;;0.65;0.40;;;;;;;;;;5023004;28;20192;-60
2022/11/29 14:29:53;;;;;;;0.30;0.30;;;;;;;;;;5024368;28;21116;-59
2022/11/29 14:32:22;;;;;;;0.30;0.30;;;;;;;;;;5023324;28;20049;-63
2022/11/29 14:35:01;;;;;;;1.13;0.68;;;;;;;;;;5024324;28;20767;-59
2022/11/29 14:37:43;;;;;;;0.30;0.28;;;;;;;;;;5022695;28;20663;-63
2022/11/29 14:40:19;;;;;;;0.75;0.60;;;;;;;;;;5024030;28;20045;-63
2022/11/29 14:42:47;;;;;;;0.20;0.20;;;;;;;;;;5008305;28;20131;-62
2022/11/29 14:45:31;;;;;;;0.20;0.20;;;;;;;;;;5023311;28;20096;-61
2022/11/29 14:47:57;;;;;;;;;;;;;;;;;;5022944;28;20056;-61
2022/11/29 14:50:34;;;;;;;0.30;0.30;;;;;;;;;;5008452;28;19940;-60
2022/11/29 14:53:01;;;;;;;1.52;1.30;;;;;;;;;;5023538;28;20058;-61
2022/11/29 14:55:29;;;;;;;0.70;0.47;;;;;;;;;;5020346;28;20045;-61
2022/11/29 14:58:05;;;;;;;0.20;0.20;;;;;;;;;;5015467;28;20050;-62
2022/11/29 15:00:35;;;;;;;0.20;0.20;;;;;;;;;;5014741;28;20193;-60
2022/11/29 15:03:20;;;;;;;0.30;0.30;;;;;;;;;;5030883;28;20046;-60
2022/11/29 15:05:46;;;;;;;0.52;0.25;;;;;;;;;;5014464;28;20039;-64
2022/11/29 15:08:31;;;;;;;0.55;0.40;;;;;;;;;;5014571;28;20052;-61
2022/11/29 15:11:10;;;;;;;1.08;0.52;;;;;;;;;;5014483;28;20041;-61
2022/11/29 15:13:38;;;;;;;0.68;0.38;;;;;;;;;;5030022;28;20056;-61
2022/11/29 15:16:04;;;;;;;0.20;0.20;;;;;;;;;;5030012;28;20071;-62
2022/11/29 15:18:43;;;;;;;0.40;0.40;;;;;;;;;;5012312;28;20143;-61
2022/11/29 15:21:21;;;;;;;0.25;0.25;;;;;;;;;;5014398;28;20538;-62